Archival Weather

Phoenix Deer Valley

Phoenix, Arizona (KDVT)

Report from: Monday, August 15, 2022 4:53 PM MST
Current time: Tuesday, June 18, 2024 6:14 AM MST

Current weather – Weather history – Daily summaries
Weather forecast

Temperature36.7°C (98.1°F)
Heat index36.9°C (98.5°F)
Dew point15.6°C (60.1°F)
Winds 9 kts (4.6 m/s, 10.4 mph) West-Southwest (240°)
Visibility10 mi. (16.1 km)
Clouds Sky clear
Altimeter29.77 in.Hg (1008 mB)
Relative humidity29 %
Density altitude2,968 ft. (905 m)
Sea-level pressure100.5 kPa (1005 mB, 29.68 in.Hg)
Max temp last 6 hours37.2°C (99.0°F)
Min temp last 6 hours31.7°C (89.1°F)
Remarks Automated weather observing station with precipitation discriminator
Pressure falling more slowly
Flight conditions Visual Meteorological Conditions
Raw dataKDVT 152353Z 24009KT 10SM CLR 37/16 A2977 RMK AO2 SLP052 T03670156 10372 20317 56020
An error has occurred. This application may no longer respond until reloaded. Reload 🗙